Time;durP1;ratioP1;P1;durP2;ratioP2;P2;SDS_P1;SDS_P2;PMS_P1;PMS_P2;Temp;Humidity;BMP_temperature;BMP_pressure;BME280_temperature;BME280_humidity;BME280_pressure;Samples;Min_cycle;Max_cycle;Signal;HPM_P1;HPM_P2
2023/07/28 00:02:04;;;;;;;19.30;5.93;;;18.20;99.90;;;;;;5027352;28;20414;-70
2023/07/28 00:04:30;;;;;;;13.60;5.55;;;18.20;99.90;;;;;;5002876;28;20313;-70
2023/07/28 00:06:55;;;;;;;11.52;4.80;;;18.20;99.90;;;;;;5047298;28;20135;-70
2023/07/28 00:09:23;;;;;;;13.75;5.47;;;18.20;99.90;;;;;;5043456;28;20044;-71
2023/07/28 00:11:48;;;;;;;13.77;5.93;;;18.20;99.90;;;;;;5029931;28;20037;-70
2023/07/28 00:14:14;;;;;;;11.50;5.60;;;18.20;99.90;;;;;;5030678;28;20036;-70
2023/07/28 00:16:40;;;;;;;15.35;5.30;;;18.20;99.90;;;;;;5028416;28;20547;-71
2023/07/28 00:19:06;;;;;;;10.57;5.30;;;18.20;99.90;;;;;;5046619;28;20128;-70
2023/07/28 00:21:31;;;;;;;14.93;5.07;;;18.20;99.90;;;;;;5029960;28;20131;-71
2023/07/28 00:23:57;;;;;;;12.60;5.45;;;18.30;99.90;;;;;;5030926;28;20098;-70
2023/07/28 00:26:23;;;;;;;17.25;6.28;;;18.30;99.90;;;;;;5038372;28;20535;-70
2023/07/28 00:28:48;;;;;;;16.40;6.07;;;18.20;99.90;;;;;;5027142;28;20049;-70
2023/07/28 00:31:14;;;;;;;15.93;5.72;;;18.20;99.90;;;;;;5027971;28;20045;-71
2023/07/28 00:33:40;;;;;;;16.58;5.95;;;18.20;99.90;;;;;;5037939;28;20041;-70
2023/07/28 00:36:05;;;;;;;17.77;7.07;;;18.30;99.90;;;;;;5027192;28;20041;-70
2023/07/28 00:38:31;;;;;;;17.25;6.45;;;18.20;99.90;;;;;;5046180;28;20037;-70
2023/07/28 00:40:57;;;;;;;17.10;6.13;;;18.30;99.90;;;;;;5046578;28;20048;-70
2023/07/28 00:43:23;;;;;;;;;;;18.30;99.90;;;;;;5046371;28;20068;-70
2023/07/28 00:45:49;;;;;;;18.85;7.00;;;18.30;99.90;;;;;;5027302;28;19970;-70
2023/07/28 00:48:16;;;;;;;19.17;7.15;;;18.30;99.90;;;;;;5029924;28;20064;-70
2023/07/28 00:50:45;;;;;;;18.40;7.75;;;18.30;99.90;;;;;;5043912;28;20127;-70
2023/07/28 00:53:11;;;;;;;21.27;7.15;;;18.20;99.90;;;;;;5026128;28;20044;-70
2023/07/28 00:55:37;;;;;;;18.17;7.43;;;18.30;99.90;;;;;;5013108;28;20495;-70
2023/07/28 00:58:03;;;;;;;16.25;6.90;;;18.20;99.90;;;;;;5027898;28;20243;-70
2023/07/28 01:00:29;;;;;;;20.23;7.65;;;18.20;99.90;;;;;;5025606;28;20059;-70
2023/07/28 01:02:55;;;;;;;18.10;7.35;;;18.30;99.90;;;;;;5024325;28;20220;-70
2023/07/28 01:05:28;;;;;;;18.35;8.02;;;18.30;99.90;;;;;;5027902;28;20032;-70
2023/07/28 01:08:02;;;;;;;15.95;6.47;;;18.20;99.90;;;;;;5041519;28;20304;-71
2023/07/28 01:10:32;;;;;;;21.65;6.50;;;18.20;99.90;;;;;;5022387;28;20041;-70
2023/07/28 01:12:58;;;;;;;16.00;6.75;;;18.20;99.90;;;;;;5047161;28;20121;-70
2023/07/28 01:15:24;;;;;;;;;;;18.20;99.90;;;;;;5041590;28;20080;-70
2023/07/28 01:17:50;;;;;;;13.52;6.47;;;18.20;99.90;;;;;;5045859;28;19960;-71
2023/07/28 01:20:16;;;;;;;17.98;6.68;;;18.20;99.90;;;;;;5029469;28;20040;-70
2023/07/28 01:22:57;;;;;;;;;;;18.20;99.90;;;;;;5033245;28;20186;-71
2023/07/28 01:26:00;;;;;;;21.08;7.07;;;18.20;99.90;;;;;;5021127;28;20362;-72
2023/07/28 01:28:27;;;;;;;21.50;7.35;;;18.20;99.90;;;;;;5031943;28;20502;-74
2023/07/28 01:30:52;;;;;;;18.15;7.10;;;18.20;99.90;;;;;;5026805;28;20040;-71
2023/07/28 01:33:19;;;;;;;21.40;7.00;;;18.20;99.90;;;;;;5028966;28;20545;-71
2023/07/28 01:35:45;;;;;;;21.08;6.95;;;18.20;99.90;;;;;;5031979;28;20076;-71
2023/07/28 01:38:12;;;;;;;19.98;6.70;;;18.20;99.90;;;;;;5030169;28;20032;-70
2023/07/28 01:40:38;;;;;;;20.02;7.60;;;18.20;99.90;;;;;;5048333;28;20098;-71
2023/07/28 01:43:04;;;;;;;18.40;6.53;;;18.20;99.90;;;;;;5033284;28;20558;-71
2023/07/28 01:45:29;;;;;;;17.50;6.68;;;18.20;99.90;;;;;;5013199;28;20049;-71
2023/07/28 01:47:55;;;;;;;21.10;6.55;;;18.20;99.90;;;;;;5032566;28;20037;-71
2023/07/28 01:50:20;;;;;;;17.90;5.85;;;18.20;99.90;;;;;;5044501;28;20132;-71
2023/07/28 01:52:46;;;;;;;14.50;6.63;;;18.20;99.90;;;;;;5049278;28;20430;-71
2023/07/28 01:55:12;;;;;;;11.13;5.70;;;18.20;99.90;;;;;;5046403;28;20045;-71
2023/07/28 01:57:39;;;;;;;10.93;4.50;;;18.20;99.90;;;;;;5032973;28;20037;-71
2023/07/28 02:00:06;;;;;;;13.68;4.60;;;18.20;99.90;;;;;;5035651;28;20493;-71
2023/07/28 02:02:32;;;;;;;24.17;5.47;;;18.30;99.90;;;;;;5032710;28;20033;-71
2023/07/28 02:04:57;;;;;;;17.15;5.28;;;18.20;99.90;;;;;;5028424;28;20450;-70
2023/07/28 02:07:23;;;;;;;8.68;4.32;;;18.20;99.90;;;;;;5031174;28;20059;-71
2023/07/28 02:09:49;;;;;;;16.95;5.55;;;18.20;99.90;;;;;;5045875;28;20029;-71
2023/07/28 02:12:14;;;;;;;14.50;4.25;;;18.20;99.90;;;;;;5031064;28;20438;-71
2023/07/28 02:14:40;;;;;;;14.23;4.18;;;18.20;99.90;;;;;;5048446;28;20406;-71
2023/07/28 02:17:06;;;;;;;15.52;4.03;;;18.20;99.90;;;;;;5048657;28;20041;-71
2023/07/28 02:19:32;;;;;;;11.93;3.78;;;18.20;99.90;;;;;;5031617;28;20113;-71
2023/07/28 02:21:57;;;;;;;9.43;4.15;;;18.20;99.90;;;;;;5031018;28;20032;-71
2023/07/28 02:24:23;;;;;;;14.63;3.97;;;18.20;99.90;;;;;;5046720;28;20159;-71
2023/07/28 02:26:48;;;;;;;12.73;4.10;;;18.20;99.90;;;;;;5026882;28;20131;-71
2023/07/28 02:29:14;;;;;;;12.65;3.92;;;18.20;99.90;;;;;;5081705;22;20049;-68
2023/07/28 02:31:40;;;;;;;10.48;3.97;;;18.20;99.90;;;;;;5020080;28;20192;-68
2023/07/28 02:34:05;;;;;;;13.50;4.22;;;18.20;99.90;;;;;;5027465;28;20048;-69
2023/07/28 02:36:31;;;;;;;14.98;4.65;;;18.20;99.90;;;;;;5022437;28;20145;-68
2023/07/28 02:38:57;;;;;;;15.50;4.75;;;18.20;99.90;;;;;;5024849;28;20041;-69
2023/07/28 02:41:25;;;;;;;11.93;3.47;;;18.20;99.90;;;;;;5025477;28;20073;-69
2023/07/28 02:43:51;;;;;;;11.88;4.20;;;18.20;99.90;;;;;;5021600;28;20049;-69
2023/07/28 02:46:16;;;;;;;6.00;3.63;;;18.20;99.90;;;;;;5025207;28;20505;-69
2023/07/28 02:48:42;;;;;;;10.18;3.35;;;18.20;99.90;;;;;;5024291;28;20495;-69
2023/07/28 02:51:08;;;;;;;14.13;4.32;;;18.20;99.90;;;;;;5021877;28;20101;-68
2023/07/28 02:53:33;;;;;;;15.80;4.32;;;18.10;99.90;;;;;;5020548;28;20191;-69
2023/07/28 02:56:01;;;;;;;9.43;3.33;;;18.10;99.90;;;;;;5024408;28;20169;-69
2023/07/28 02:58:26;;;;;;;15.25;3.55;;;18.10;99.90;;;;;;5022227;28;20050;-68
2023/07/28 03:00:52;;;;;;;21.27;4.05;;;18.20;99.90;;;;;;5023262;28;20451;-68
2023/07/28 03:03:18;;;;;;;9.55;3.55;;;18.10;99.90;;;;;;5022388;28;20041;-69
2023/07/28 03:05:43;;;;;;;11.35;3.58;;;18.10;99.90;;;;;;5024169;28;20039;-69
2023/07/28 03:08:09;;;;;;;15.07;3.72;;;18.10;99.90;;;;;;5005983;28;20048;-68
2023/07/28 03:10:37;;;;;;;13.27;3.17;;;18.10;99.90;;;;;;5018861;28;20095;-69
2023/07/28 03:13:03;;;;;;;13.77;3.30;;;18.10;99.90;;;;;;5023650;28;20056;-69
2023/07/28 03:15:29;;;;;;;11.55;3.72;;;18.10;99.90;;;;;;5024325;28;20099;-68
2023/07/28 03:17:54;;;;;;;10.15;3.30;;;18.10;99.90;;;;;;5022907;28;20184;-69
2023/07/28 03:20:21;;;;;;;8.95;3.15;;;18.10;99.90;;;;;;5023298;28;20125;-68
2023/07/28 03:22:46;;;;;;;9.57;3.03;;;18.10;99.90;;;;;;5021116;28;20049;-69
2023/07/28 03:25:12;;;;;;;9.80;3.55;;;18.10;99.90;;;;;;5023010;28;20052;-69
2023/07/28 03:27:38;;;;;;;15.88;3.65;;;18.10;99.90;;;;;;5022383;28;20045;-69
2023/07/28 03:30:10;;;;;;;11.90;3.40;;;18.10;99.90;;;;;;5045110;28;20041;-68
2023/07/28 03:32:36;;;;;;;7.63;3.03;;;18.10;99.90;;;;;;5022453;28;20049;-68
2023/07/28 03:35:04;;;;;;;;;;;18.10;99.90;;;;;;5027215;28;20112;-68
2023/07/28 03:37:30;;;;;;;11.13;3.03;;;18.20;99.90;;;;;;5031601;28;19940;-69
2023/07/28 03:39:55;;;;;;;13.98;3.42;;;18.10;99.90;;;;;;5031144;28;20033;-69
2023/07/28 03:42:21;;;;;;;10.50;3.00;;;18.10;99.90;;;;;;5045830;28;20154;-69
2023/07/28 03:44:46;;;;;;;13.43;3.30;;;18.10;99.90;;;;;;5029902;28;20402;-69
2023/07/28 03:47:12;;;;;;;11.07;2.85;;;18.20;99.90;;;;;;5027589;28;20071;-69
2023/07/28 03:49:38;;;;;;;7.65;2.90;;;18.20;99.90;;;;;;5035567;28;20040;-68
2023/07/28 03:52:04;;;;;;;12.80;3.08;;;18.20;99.90;;;;;;5029948;28;20099;-68
2023/07/28 03:54:29;;;;;;;8.57;2.90;;;18.20;99.90;;;;;;5043361;28;20191;-68
2023/07/28 03:56:55;;;;;;;11.07;3.83;;;18.20;99.90;;;;;;5032368;28;20092;-69
2023/07/28 03:59:21;;;;;;;8.95;4.05;;;18.20;99.90;;;;;;5031645;28;20036;-69
2023/07/28 04:01:47;;;;;;;8.70;3.60;;;18.20;99.90;;;;;;5044488;28;20743;-69
2023/07/28 04:04:13;;;;;;;13.40;3.10;;;18.20;99.90;;;;;;5024236;28;20076;-69
2023/07/28 04:06:46;;;;;;;10.75;3.10;;;18.20;99.90;;;;;;5040097;28;20323;-68
2023/07/28 04:09:14;;;;;;;13.45;3.72;;;18.20;99.90;;;;;;5018114;28;20056;-68
2023/07/28 04:11:40;;;;;;;7.45;3.25;;;18.20;99.90;;;;;;5025235;28;20559;-69
2023/07/28 04:14:06;;;;;;;11.13;3.10;;;18.20;99.90;;;;;;5023134;28;20040;-69
2023/07/28 04:16:32;;;;;;;9.57;2.88;;;18.20;99.90;;;;;;5030033;28;20049;-69
2023/07/28 04:18:58;;;;;;;8.25;2.88;;;18.20;99.90;;;;;;5025539;28;20505;-69
2023/07/28 04:21:24;;;;;;;;;;;18.20;99.90;;;;;;5038680;28;20040;-69
2023/07/28 04:23:50;;;;;;;11.13;3.15;;;18.20;99.90;;;;;;5023787;28;19975;-69
2023/07/28 04:26:19;;;;;;;12.52;3.47;;;18.20;99.90;;;;;;5021036;28;20132;-69
2023/07/28 04:28:44;;;;;;;7.47;3.33;;;18.20;99.90;;;;;;5025162;28;20060;-69
2023/07/28 04:31:11;;;;;;;10.95;3.15;;;18.20;99.90;;;;;;5030822;28;20052;-69
2023/07/28 04:33:41;;;;;;;9.23;3.72;;;18.20;99.90;;;;;;5023586;28;20048;-68
2023/07/28 04:36:07;;;;;;;10.73;2.90;;;18.20;99.90;;;;;;5046067;28;20285;-69
2023/07/28 04:38:35;;;;;;;8.93;2.25;;;18.20;99.90;;;;;;5032336;28;20055;-69
2023/07/28 04:41:03;;;;;;;9.07;2.83;;;18.20;99.90;;;;;;5011914;28;20108;-69
2023/07/28 04:43:29;;;;;;;14.80;3.38;;;18.20;99.90;;;;;;5027273;28;20033;-69
2023/07/28 04:45:54;;;;;;;9.15;2.90;;;18.20;99.90;;;;;;5014988;28;20098;-68
2023/07/28 04:48:20;;;;;;;8.77;2.67;;;18.20;99.90;;;;;;5037710;28;20049;-69
2023/07/28 04:50:46;;;;;;;15.00;3.53;;;18.20;99.90;;;;;;5044247;28;20056;-69
2023/07/28 04:53:11;;;;;;;11.10;3.70;;;18.20;99.90;;;;;;5026103;28;20055;-68
2023/07/28 04:55:37;;;;;;;8.93;3.33;;;18.20;99.90;;;;;;5031687;28;20072;-69
2023/07/28 04:58:03;;;;;;;8.85;3.40;;;18.20;99.90;;;;;;5028985;28;20105;-69
2023/07/28 05:00:28;;;;;;;10.55;3.40;;;18.20;99.90;;;;;;5028634;28;20109;-68
2023/07/28 05:02:54;;;;;;;9.65;3.72;;;18.30;99.90;;;;;;5028832;28;20044;-69
2023/07/28 05:05:20;;;;;;;12.43;3.60;;;18.20;99.90;;;;;;5026632;28;20595;-69
2023/07/28 05:07:46;;;;;;;6.95;3.40;;;18.30;99.90;;;;;;5028578;28;20053;-69
2023/07/28 05:10:11;;;;;;;9.00;3.92;;;18.30;99.90;;;;;;5025686;28;20332;-69
2023/07/28 05:12:37;;;;;;;9.90;3.72;;;18.30;99.90;;;;;;5029498;28;20510;-69
2023/07/28 05:15:04;;;;;;;10.80;3.53;;;18.30;99.90;;;;;;5026118;28;20081;-69
2023/07/28 05:17:30;;;;;;;8.52;4.18;;;18.30;99.90;;;;;;5025743;28;20053;-69
2023/07/28 05:19:55;;;;;;;11.27;4.45;;;18.30;99.90;;;;;;5028025;28;20090;-69
2023/07/28 05:22:21;;;;;;;12.40;4.95;;;18.30;99.90;;;;;;5027878;28;20042;-68
2023/07/28 05:24:47;;;;;;;11.18;4.85;;;18.30;99.90;;;;;;5028954;28;20217;-69
2023/07/28 05:27:12;;;;;;;10.23;4.63;;;18.30;99.90;;;;;;5030998;28;20098;-68
2023/07/28 05:29:40;;;;;;;8.20;4.55;;;18.30;99.90;;;;;;5033381;28;20111;-71
2023/07/28 05:32:06;;;;;;;8.52;4.97;;;18.30;99.90;;;;;;5023218;28;20049;-71
2023/07/28 05:34:32;;;;;;;;;;;18.30;99.90;;;;;;5048277;28;20037;-70
2023/07/28 05:36:58;;;;;;;10.93;5.57;;;18.20;99.90;;;;;;5053508;28;19927;-70
2023/07/28 05:39:23;;;;;;;9.85;4.90;;;18.20;99.90;;;;;;5029784;28;20165;-70
2023/07/28 05:41:49;;;;;;;9.40;4.97;;;18.20;99.90;;;;;;5049312;28;20388;-70
2023/07/28 05:44:15;;;;;;;9.93;4.97;;;18.20;99.90;;;;;;5034683;28;20047;-69
2023/07/28 05:46:40;;;;;;;8.77;5.15;;;18.20;99.90;;;;;;5029975;28;20374;-70
2023/07/28 05:49:06;;;;;;;8.43;5.20;;;18.20;99.90;;;;;;5049244;28;20040;-70
2023/07/28 05:51:31;;;;;;;7.72;4.75;;;18.20;99.90;;;;;;5032233;28;20047;-72
2023/07/28 05:53:57;;;;;;;9.23;4.93;;;18.20;99.90;;;;;;5034376;28;20120;-69
2023/07/28 05:56:23;;;;;;;6.45;4.50;;;18.20;99.90;;;;;;5018719;28;20048;-70
2023/07/28 05:58:49;;;;;;;9.75;5.72;;;18.20;99.90;;;;;;5022979;28;20053;-68
2023/07/28 06:01:15;;;;;;;7.40;5.28;;;18.30;99.90;;;;;;5028294;28;20051;-69
2023/07/28 06:03:41;;;;;;;8.65;5.38;;;18.30;99.90;;;;;;5049006;28;20037;-69
2023/07/28 06:06:07;;;;;;;8.27;5.40;;;18.30;99.90;;;;;;5030285;28;20394;-68
2023/07/28 06:08:34;;;;;;;10.50;5.18;;;18.30;99.90;;;;;;5049368;28;20117;-69
2023/07/28 06:10:59;;;;;;;8.05;5.75;;;18.30;99.90;;;;;;5024062;28;20443;-72
2023/07/28 06:13:25;;;;;;;8.93;5.07;;;18.30;99.90;;;;;;5034753;28;20283;-68
2023/07/28 06:15:54;;;;;;;8.35;5.35;;;18.30;99.90;;;;;;5043948;28;20471;-69
2023/07/28 06:18:22;;;;;;;11.32;5.78;;;18.30;99.90;;;;;;5020449;28;20040;-68
2023/07/28 06:20:48;;;;;;;10.00;5.45;;;18.30;99.90;;;;;;5041910;28;20037;-69
2023/07/28 06:23:14;;;;;;;8.57;5.28;;;18.30;99.90;;;;;;5020019;28;20038;-69
2023/07/28 06:25:43;;;;;;;7.93;5.72;;;18.30;99.90;;;;;;5027386;28;20527;-69
2023/07/28 06:28:10;;;;;;;7.78;5.43;;;18.30;99.90;;;;;;5029437;28;20049;-69
2023/07/28 06:30:37;;;;;;;13.27;5.85;;;18.30;99.90;;;;;;5026419;28;20466;-68
2023/07/28 06:33:03;;;;;;;10.68;5.97;;;18.40;99.90;;;;;;5030137;28;20056;-69
2023/07/28 06:35:28;;;;;;;;;;;18.40;99.90;;;;;;5044636;28;20135;-70
2023/07/28 06:37:54;;;;;;;9.50;5.40;;;18.40;99.90;;;;;;5030479;28;19925;-69
2023/07/28 06:40:20;;;;;;;8.43;5.40;;;18.40;99.90;;;;;;5010282;28;20053;-69
2023/07/28 06:42:46;;;;;;;8.13;5.88;;;18.40;99.90;;;;;;5046847;28;20098;-69
2023/07/28 06:45:12;;;;;;;6.40;4.60;;;18.50;99.90;;;;;;5042236;28;20037;-69
2023/07/28 06:47:38;;;;;;;;;;;18.40;99.90;;;;;;5026471;28;20041;-69
2023/07/28 06:50:05;;;;;;;8.27;5.25;;;18.50;99.90;;;;;;5041327;28;19974;-68
2023/07/28 06:52:31;;;;;;;8.65;5.80;;;18.40;99.90;;;;;;5029836;28;20045;-68
2023/07/28 06:54:56;;;;;;;7.20;4.95;;;18.50;99.90;;;;;;5020322;28;20049;-68
2023/07/28 06:57:22;;;;;;;10.77;5.75;;;18.50;99.90;;;;;;5027049;28;20048;-69
2023/07/28 06:59:49;;;;;;;10.13;5.50;;;18.50;99.90;;;;;;5029284;28;20112;-69
2023/07/28 07:02:15;;;;;;;7.32;4.53;;;18.50;99.90;;;;;;5027355;28;20060;-69
2023/07/28 07:04:41;;;;;;;7.80;4.88;;;18.60;99.90;;;;;;5030611;28;20110;-69
2023/07/28 07:07:07;;;;;;;8.70;5.25;;;18.60;99.90;;;;;;5021811;28;20120;-69
2023/07/28 07:09:33;;;;;;;7.03;4.38;;;18.60;99.90;;;;;;5023585;28;20107;-69
2023/07/28 07:11:58;;;;;;;8.02;4.85;;;18.70;99.90;;;;;;5027234;28;20044;-69
2023/07/28 07:14:24;;;;;;;6.47;4.05;;;18.70;99.90;;;;;;5020467;28;20049;-69
2023/07/28 07:16:50;;;;;;;7.20;5.10;;;18.70;99.90;;;;;;5040383;28;20053;-69
2023/07/28 07:19:15;;;;;;;10.05;4.80;;;18.70;99.90;;;;;;5047960;28;20029;-69
2023/07/28 07:21:42;;;;;;;9.80;4.15;;;18.80;99.90;;;;;;5043292;28;20053;-69
2023/07/28 07:24:07;;;;;;;;;;;18.70;99.90;;;;;;5029317;28;20219;-69
2023/07/28 07:26:33;;;;;;;5.85;4.38;;;18.80;99.90;;;;;;5021266;28;20012;-68
2023/07/28 07:28:59;;;;;;;7.13;4.18;;;18.70;99.90;;;;;;5029662;28;20048;-69
2023/07/28 07:31:24;;;;;;;7.32;4.50;;;18.80;99.90;;;;;;5032005;28;20060;-69
2023/07/28 07:33:50;;;;;;;8.68;4.70;;;18.80;99.90;;;;;;5021521;28;20380;-69
2023/07/28 07:36:18;;;;;;;8.65;3.85;;;18.80;99.90;;;;;;5025785;28;20053;-69
2023/07/28 07:38:51;;;;;;;7.78;4.30;;;18.90;99.90;;;;;;5027156;28;20245;-69
2023/07/28 07:41:19;;;;;;;6.10;4.20;;;18.90;99.90;;;;;;5022526;28;20029;-68
2023/07/28 07:43:45;;;;;;;8.18;4.47;;;19.00;99.90;;;;;;5007490;28;20407;-69
2023/07/28 07:46:11;;;;;;;;;;;19.00;99.90;;;;;;5046151;28;20060;-68
2023/07/28 07:48:36;;;;;;;8.73;4.20;;;19.00;99.90;;;;;;5038441;28;19917;-68
2023/07/28 07:51:02;;;;;;;9.90;4.72;;;19.00;99.90;;;;;;5030222;28;20041;-68
2023/07/28 07:53:28;;;;;;;9.60;4.05;;;19.00;99.90;;;;;;5010331;28;20052;-68
2023/07/28 07:55:54;;;;;;;6.25;3.65;;;19.00;99.90;;;;;;5026501;28;20045;-69
2023/07/28 07:58:19;;;;;;;8.48;3.88;;;19.00;99.90;;;;;;5041025;28;20134;-68
2023/07/28 08:00:45;;;;;;;7.88;4.50;;;19.10;99.90;;;;;;5039810;28;20037;-70
2023/07/28 08:03:11;;;;;;;6.45;3.97;;;19.10;99.90;;;;;;5041812;28;20073;-69
2023/07/28 08:05:37;;;;;;;;;;;19.20;99.90;;;;;;5003797;28;20075;-69
2023/07/28 08:08:05;;;;;;;6.80;4.65;;;19.10;99.90;;;;;;5036154;28;20381;-68
2023/07/28 08:10:30;;;;;;;7.20;4.75;;;19.20;99.90;;;;;;5025249;28;20049;-69
2023/07/28 08:12:56;;;;;;;7.82;4.80;;;19.20;99.90;;;;;;5026408;28;20528;-69
2023/07/28 08:15:22;;;;;;;7.70;4.38;;;19.20;99.90;;;;;;5027553;28;20102;-69
2023/07/28 08:17:47;;;;;;;8.65;4.68;;;19.30;99.90;;;;;;5028293;28;20040;-69
2023/07/28 08:20:13;;;;;;;6.93;4.57;;;19.40;99.90;;;;;;5026026;28;20041;-69
2023/07/28 08:22:39;;;;;;;6.63;4.30;;;19.50;99.90;;;;;;5023064;28;20044;-69
2023/07/28 08:25:05;;;;;;;7.00;4.35;;;19.50;99.90;;;;;;5023472;28;20410;-69
2023/07/28 08:27:31;;;;;;;7.47;5.05;;;19.60;99.90;;;;;;5025526;28;20049;-69
2023/07/28 08:29:56;;;;;;;4.97;3.60;;;19.60;99.90;;;;;;5027219;28;20076;-69
2023/07/28 08:32:22;;;;;;;6.10;4.03;;;19.60;99.90;;;;;;5016794;28;20053;-69
2023/07/28 08:34:48;;;;;;;5.13;3.33;;;19.70;99.90;;;;;;5038772;28;20430;-69
2023/07/28 08:37:14;;;;;;;6.97;3.88;;;19.70;99.90;;;;;;5028288;28;20083;-69
2023/07/28 08:39:39;;;;;;;6.30;3.30;;;19.70;99.90;;;;;;5040720;28;20044;-69
2023/07/28 08:42:05;;;;;;;4.75;3.10;;;19.80;99.90;;;;;;5026993;28;20072;-69
2023/07/28 08:44:33;;;;;;;5.43;3.80;;;19.80;99.90;;;;;;5027460;28;20041;-69
2023/07/28 08:47:01;;;;;;;5.43;3.30;;;19.90;99.90;;;;;;5024984;28;20052;-70
2023/07/28 08:49:27;;;;;;;6.13;3.67;;;19.90;99.90;;;;;;5012799;28;20085;-70
2023/07/28 08:51:57;;;;;;;;;;;19.90;99.90;;;;;;5026685;28;20407;-69
2023/07/28 08:54:23;;;;;;;6.43;3.55;;;19.90;99.90;;;;;;5025848;28;19916;-70
2023/07/28 08:56:50;;;;;;;5.93;3.17;;;19.80;99.90;;;;;;5043611;28;20178;-69
2023/07/28 08:59:26;;;;;;;5.72;3.20;;;19.90;99.90;;;;;;5024739;28;20113;-70
2023/07/28 09:01:54;;;;;;;5.55;3.75;;;20.00;99.90;;;;;;5027777;28;20037;-68
2023/07/28 09:04:20;;;;;;;4.65;3.25;;;20.10;99.90;;;;;;5040368;28;20130;-70
2023/07/28 09:06:48;;;;;;;6.68;3.40;;;20.20;99.90;;;;;;5032623;28;20132;-70
2023/07/28 09:09:15;;;;;;;4.53;2.55;;;20.20;99.90;;;;;;5015418;28;20048;-69
2023/07/28 09:11:45;;;;;;;5.22;2.60;;;20.20;99.90;;;;;;5027181;28;20409;-70
2023/07/28 09:14:13;;;;;;;5.57;2.60;;;20.20;99.90;;;;;;5030810;28;20339;-71
2023/07/28 09:16:39;;;;;;;3.72;2.55;;;20.30;99.90;;;;;;5032029;28;20498;-71
2023/07/28 09:19:09;;;;;;;3.28;2.17;;;20.30;99.90;;;;;;5038777;28;20033;-71
2023/07/28 09:21:35;;;;;;;4.18;2.40;;;20.50;99.90;;;;;;5019845;28;20094;-70
2023/07/28 09:24:08;;;;;;;4.03;2.40;;;20.60;99.90;;;;;;5030594;28;20041;-71
2023/07/28 09:26:47;;;;;;;2.90;1.83;;;20.50;99.90;;;;;;5028214;28;20441;-71
2023/07/28 09:29:23;;;;;;;4.78;1.80;;;20.50;99.90;;;;;;5025998;28;20364;-71
2023/07/28 09:31:49;;;;;;;8.40;2.22;;;20.50;99.90;;;;;;5028569;28;20048;-71
2023/07/28 09:34:26;;;;;;;3.42;1.60;;;20.50;99.90;;;;;;5028527;28;20044;-70
2023/07/28 09:36:57;;;;;;;5.05;2.00;;;20.60;99.90;;;;;;5049211;28;20037;-74
2023/07/28 09:39:24;;;;;;;6.40;2.15;;;20.70;99.90;;;;;;5028411;28;20052;-73
2023/07/28 09:41:50;;;;;;;3.53;1.60;;;20.80;99.90;;;;;;5026128;28;20060;-74
2023/07/28 09:44:16;;;;;;;5.13;2.25;;;20.90;99.90;;;;;;5030957;28;20556;-70
2023/07/28 09:46:51;;;;;;;4.20;1.75;;;21.00;99.90;;;;;;5044605;28;20053;-71
2023/07/28 09:49:39;;;;;;;5.00;1.80;;;21.00;99.90;;;;;;5025036;28;20041;-71
2023/07/28 09:52:08;;;;;;;3.75;1.90;;;21.20;99.90;;;;;;5027376;28;20059;-71
2023/07/28 09:54:41;;;;;;;3.25;1.48;;;21.40;99.90;;;;;;5033978;28;20049;-71
2023/07/28 09:57:20;;;;;;;3.28;1.63;;;21.50;99.90;;;;;;5026319;28;20132;-70
2023/07/28 09:59:47;;;;;;;4.90;1.55;;;21.50;99.90;;;;;;5034779;28;20067;-71
2023/07/28 10:02:13;;;;;;;3.95;1.20;;;21.50;99.90;;;;;;5033885;28;20037;-70
2023/07/28 10:04:39;;;;;;;;;;;21.50;99.90;;;;;;5023774;28;20099;-71
2023/07/28 10:07:07;;;;;;;2.20;1.45;;;21.50;99.90;;;;;;5006747;28;20037;-71
2023/07/28 10:09:33;;;;;;;4.57;1.90;;;21.60;99.90;;;;;;5023976;28;20100;-71
2023/07/28 10:12:00;;;;;;;4.05;1.85;;;21.60;99.90;;;;;;5023841;28;20041;-71
2023/07/28 10:14:39;;;;;;;5.05;2.10;;;21.60;99.90;;;;;;5014666;28;20044;-70
2023/07/28 10:17:05;;;;;;;3.05;1.73;;;21.50;99.90;;;;;;5023940;28;20052;-70
2023/07/28 10:19:35;;;;;;;;;;;21.50;99.90;;;;;;5029874;28;20045;-70
2023/07/28 10:22:09;;;;;;;4.40;1.90;;;21.50;99.90;;;;;;5021790;28;19947;-71
2023/07/28 10:25:01;;;;;;;6.22;1.65;;;21.50;99.90;;;;;;5030160;28;20075;-71
2023/07/28 10:27:30;;;;;;;3.17;1.80;;;21.60;99.90;;;;;;5007761;28;20463;-70
2023/07/28 10:30:01;;;;;;;6.20;1.98;;;21.60;99.90;;;;;;5023090;28;20068;-71
2023/07/28 10:32:28;;;;;;;4.28;1.65;;;21.50;99.90;;;;;;5023536;28;20056;-70
2023/07/28 10:35:12;;;;;;;3.58;1.60;;;21.50;99.90;;;;;;5025185;28;20041;-70
2023/07/28 10:37:39;;;;;;;5.35;1.63;;;21.50;99.90;;;;;;5027684;28;20051;-71
2023/07/28 10:40:24;;;;;;;3.92;1.58;;;21.50;99.90;;;;;;5036519;28;20068;-70
2023/07/28 10:42:50;;;;;;;3.33;1.60;;;21.60;99.90;;;;;;5046160;28;20052;-69
2023/07/28 10:45:16;;;;;;;3.63;1.35;;;21.60;99.90;;;;;;5032225;28;20033;-69
2023/07/28 10:47:43;;;;;;;;;;;21.60;99.90;;;;;;5027222;28;20067;-69
2023/07/28 10:50:09;;;;;;;2.20;1.20;;;21.60;99.90;;;;;;5028330;28;19956;-70
2023/07/28 10:52:40;;;;;;;3.70;1.55;;;21.60;99.90;;;;;;5028701;28;20044;-69
2023/07/28 10:55:14;;;;;;;2.80;1.10;;;21.70;99.90;;;;;;5026800;28;20036;-69
2023/07/28 10:57:42;;;;;;;2.40;1.48;;;21.70;99.90;;;;;;5022451;28;20084;-69
2023/07/28 11:00:08;;;;;;;3.05;1.25;;;21.70;99.90;;;;;;5020650;28;20044;-69
2023/07/28 11:02:38;;;;;;;3.50;1.48;;;21.70;99.90;;;;;;5029920;28;20128;-69
2023/07/28 11:05:29;;;;;;;2.90;1.25;;;21.60;99.90;;;;;;5002543;28;20092;-69
2023/07/28 11:08:00;;;;;;;2.38;1.00;;;21.60;99.90;;;;;;5029980;28;20059;-69
2023/07/28 11:10:29;;;;;;;4.22;1.60;;;21.60;99.90;;;;;;5030112;28;20361;-70
2023/07/28 11:12:58;;;;;;;2.47;1.33;;;21.70;99.90;;;;;;5025227;28;20044;-70
2023/07/28 11:15:25;;;;;;;2.88;1.40;;;21.70;99.90;;;;;;5007118;28;20083;-70
2023/07/28 11:17:52;;;;;;;3.33;1.10;;;21.80;99.90;;;;;;5031283;28;20131;-71
2023/07/28 11:20:24;;;;;;;3.17;1.42;;;21.90;99.90;;;;;;5029812;28;20041;-70
2023/07/28 11:22:58;;;;;;;3.03;1.52;;;22.00;99.90;;;;;;5022523;28;20107;-70
2023/07/28 11:25:25;;;;;;;3.03;1.58;;;22.10;99.90;;;;;;5026487;28;20033;-71
2023/07/28 11:27:51;;;;;;;4.70;1.60;;;22.10;99.90;;;;;;5028359;28;20033;-70
2023/07/28 11:30:17;;;;;;;;;;;22.20;99.90;;;;;;5025046;28;20099;-69
2023/07/28 11:32:45;;;;;;;3.72;1.48;;;22.30;99.90;;;;;;5027973;28;19970;-69
2023/07/28 11:35:13;;;;;;;3.20;1.30;;;22.40;99.90;;;;;;5026155;28;20346;-70
2023/07/28 11:37:41;;;;;;;3.03;1.30;;;22.50;99.90;;;;;;5021742;28;20037;-70
2023/07/28 11:40:10;;;;;;;2.63;1.45;;;22.60;99.90;;;;;;5044576;28;20055;-69
2023/07/28 11:42:37;;;;;;;2.22;1.20;;;22.70;99.90;;;;;;5029282;28;20114;-70
2023/07/28 11:45:04;;;;;;;5.22;1.70;;;22.90;99.90;;;;;;5035266;28;20045;-70
2023/07/28 11:47:31;;;;;;;4.22;1.60;;;22.90;99.90;;;;;;5021971;28;20045;-70
2023/07/28 11:50:00;;;;;;;2.22;1.30;;;23.00;99.90;;;;;;5046006;28;20060;-69
2023/07/28 11:52:34;;;;;;;2.53;1.92;;;23.00;99.90;;;;;;5026638;28;20064;-70
2023/07/28 11:55:01;;;;;;;3.05;1.23;;;23.10;99.90;;;;;;5023346;28;20118;-70
2023/07/28 11:57:32;;;;;;;2.17;1.25;;;23.20;99.90;;;;;;5011421;28;20076;-70
2023/07/28 11:59:58;;;;;;;3.08;1.73;;;23.30;99.90;;;;;;5029873;28;20095;-70
2023/07/28 12:02:28;;;;;;;2.78;1.60;;;23.30;99.90;;;;;;5039555;28;20036;-70
2023/07/28 12:04:56;;;;;;;2.38;1.42;;;23.30;99.90;;;;;;5022331;28;20033;-69
2023/07/28 12:07:32;;;;;;;2.78;1.70;;;23.30;99.90;;;;;;5031226;28;20178;-69
2023/07/28 12:10:06;;;;;;;1.77;1.20;;;23.20;99.90;;;;;;5029993;28;20037;-69
2023/07/28 12:12:43;;;;;;;1.95;1.17;;;23.10;99.90;;;;;;5020479;28;20459;-70
2023/07/28 12:15:41;;;;;;;3.33;1.48;;;23.10;99.90;;;;;;5027319;28;20119;-69
2023/07/28 12:18:14;;;;;;;3.08;1.35;;;23.00;99.90;;;;;;5022541;28;20053;-70
2023/07/28 12:20:41;;;;;;;4.50;1.50;;;23.10;99.90;;;;;;5043980;28;20048;-70
2023/07/28 12:23:08;;;;;;;2.35;1.67;;;23.20;99.90;;;;;;5026824;28;20178;-69
2023/07/28 12:25:36;;;;;;;2.63;1.10;;;23.40;99.90;;;;;;5027541;28;20070;-69
2023/07/28 12:28:02;;;;;;;3.90;1.70;;;23.60;99.90;;;;;;5041138;28;20079;-69
2023/07/28 12:30:28;;;;;;;2.78;1.38;;;23.70;99.90;;;;;;5026395;28;20555;-70
2023/07/28 12:32:54;;;;;;;;;;;23.80;99.90;;;;;;5026925;28;20169;-69
2023/07/28 12:35:23;;;;;;;5.30;1.60;;;23.80;99.90;;;;;;5023771;28;20029;-70
2023/07/28 12:37:50;;;;;;;3.20;1.77;;;23.80;99.90;;;;;;5041582;28;20053;-70
2023/07/28 12:40:16;;;;;;;4.13;1.58;;;23.70;99.90;;;;;;5049952;28;20037;-69
2023/07/28 12:42:42;;;;;;;1.95;1.30;;;23.80;99.90;;;;;;5042155;28;20048;-70
2023/07/28 12:45:08;;;;;;;1.70;1.27;;;23.80;99.90;;;;;;5028424;28;20040;-70
2023/07/28 12:47:34;;;;;;;2.17;1.35;;;23.80;99.90;;;;;;5026242;28;20129;-70
2023/07/28 12:49:59;;;;;;;5.47;1.92;;;23.80;99.90;;;;;;5026238;28;20653;-70